createdAt,value
2023-04-26T00:00:14.824Z,0.00
2023-04-26T00:01:14.808Z,0.00
2023-04-26T00:02:14.804Z,0.00
2023-04-26T00:03:15.059Z,0.00
2023-04-26T00:04:14.992Z,0.00
2023-04-26T00:05:14.851Z,0.00
2023-04-26T00:06:14.743Z,0.00
2023-04-26T00:07:14.761Z,0.00
2023-04-26T00:08:14.688Z,0.00
2023-04-26T00:09:14.700Z,0.00
2023-04-26T00:10:14.674Z,0.00
2023-04-26T00:11:14.718Z,0.00
2023-04-26T00:12:14.650Z,0.00
2023-04-26T00:13:14.658Z,0.00
2023-04-26T00:14:14.609Z,0.00
2023-04-26T00:15:14.647Z,0.00
2023-04-26T00:16:14.651Z,0.00
2023-04-26T00:17:14.619Z,0.00
2023-04-26T00:18:14.612Z,0.00
2023-04-26T00:19:14.566Z,0.00
2023-04-26T00:20:14.538Z,0.00
2023-04-26T00:21:14.574Z,0.00
2023-04-26T00:22:14.544Z,0.00
2023-04-26T00:23:14.576Z,0.00
2023-04-26T00:24:14.489Z,0.00
2023-04-26T00:25:14.496Z,0.00
2023-04-26T00:26:14.490Z,0.00
2023-04-26T00:27:14.468Z,0.00
2023-04-26T00:28:14.428Z,0.00
2023-04-26T00:29:14.432Z,0.00
2023-04-26T00:30:14.427Z,0.00
2023-04-26T00:31:14.427Z,0.00
2023-04-26T00:32:14.369Z,0.00
2023-04-26T00:33:14.398Z,0.00
2023-04-26T00:34:14.354Z,0.00
2023-04-26T00:35:14.396Z,0.00
2023-04-26T00:36:14.329Z,0.00
2023-04-26T00:37:14.347Z,0.00
2023-04-26T00:38:14.327Z,0.00
2023-04-26T00:39:14.320Z,0.00
2023-04-26T00:40:14.276Z,0.00
2023-04-26T00:41:14.282Z,0.00
2023-04-26T00:42:14.253Z,0.00
2023-04-26T00:43:14.286Z,0.00
2023-04-26T00:44:14.240Z,0.00
2023-04-26T00:45:14.253Z,0.00
2023-04-26T00:46:14.282Z,0.00
2023-04-26T00:47:14.221Z,0.00
2023-04-26T00:48:14.204Z,0.00
2023-04-26T00:49:14.185Z,0.00
2023-04-26T00:50:14.172Z,0.00
2023-04-26T00:51:14.189Z,0.00
2023-04-26T00:52:14.128Z,0.00
2023-04-26T00:53:14.123Z,0.00
2023-04-26T00:54:14.108Z,0.00
2023-04-26T00:55:14.128Z,0.00
2023-04-26T00:56:14.145Z,0.00
2023-04-26T00:57:14.103Z,0.00
2023-04-26T00:58:14.052Z,0.00
2023-04-26T00:59:14.077Z,0.00
2023-04-26T01:00:14.017Z,0.00
2023-04-26T01:01:14.103Z,0.00
2023-04-26T01:02:14.066Z,0.00
2023-04-26T01:03:14.204Z,0.00
2023-04-26T01:04:14.194Z,0.00
2023-04-26T01:05:13.993Z,0.00
2023-04-26T01:06:13.932Z,0.00
2023-04-26T01:07:13.952Z,0.00
2023-04-26T01:08:13.923Z,0.00
2023-04-26T01:09:13.956Z,0.00
2023-04-26T01:10:13.931Z,0.00
2023-04-26T01:11:13.889Z,0.00
2023-04-26T01:12:13.882Z,0.00
2023-04-26T01:13:13.890Z,0.00
2023-04-26T01:14:13.878Z,0.00
2023-04-26T01:15:13.874Z,0.00
2023-04-26T01:16:13.850Z,0.00
2023-04-26T01:17:13.992Z,0.00
2023-04-26T01:18:13.803Z,0.00
2023-04-26T01:19:13.816Z,0.00
2023-04-26T01:20:13.769Z,0.00
2023-04-26T01:21:13.805Z,0.00
2023-04-26T01:22:13.736Z,0.00
2023-04-26T01:23:13.752Z,0.00
2023-04-26T01:24:13.720Z,0.00
2023-04-26T01:25:13.722Z,0.00
2023-04-26T01:26:13.710Z,0.00
2023-04-26T01:27:13.715Z,0.00
2023-04-26T01:28:13.657Z,0.00
2023-04-26T01:29:13.664Z,0.00
2023-04-26T01:30:13.641Z,0.00
2023-04-26T01:31:13.747Z,0.00
2023-04-26T01:32:13.663Z,0.00
2023-04-26T01:33:13.624Z,0.00
2023-04-26T01:34:13.597Z,0.00
2023-04-26T01:35:13.598Z,0.00
2023-04-26T01:36:13.595Z,0.00
2023-04-26T01:37:13.580Z,0.00
2023-04-26T01:38:13.529Z,0.00
2023-04-26T01:39:13.546Z,0.00
2023-04-26T01:40:13.504Z,0.00
2023-04-26T01:41:13.530Z,0.00
2023-04-26T01:42:13.469Z,0.00
2023-04-26T01:43:13.504Z,0.00
2023-04-26T01:44:13.453Z,0.00
2023-04-26T01:45:13.485Z,0.00
2023-04-26T01:46:13.466Z,0.00
2023-04-26T01:47:13.448Z,0.00
2023-04-26T01:48:13.384Z,0.00
2023-04-26T01:49:13.410Z,0.00
2023-04-26T01:50:13.374Z,0.00
2023-04-26T01:51:13.425Z,0.00
2023-04-26T01:52:13.341Z,0.00
2023-04-26T01:53:13.359Z,0.00
2023-04-26T01:54:13.341Z,0.00
2023-04-26T01:55:13.351Z,0.00
2023-04-26T01:56:13.303Z,0.00
2023-04-26T01:57:13.299Z,0.00
2023-04-26T01:58:13.283Z,0.00
2023-04-26T01:59:13.290Z,0.00
2023-04-26T02:00:13.258Z,0.00
2023-04-26T02:01:13.304Z,0.00
2023-04-26T02:02:13.216Z,0.00
2023-04-26T02:03:13.379Z,0.00
2023-04-26T02:04:13.179Z,0.00
2023-04-26T02:05:13.282Z,0.00
2023-04-26T02:06:13.166Z,0.00
2023-04-26T02:07:13.628Z,0.00
2023-04-26T02:08:13.121Z,0.00
2023-04-26T02:09:13.161Z,0.00
2023-04-26T02:10:13.101Z,0.00
2023-04-26T02:11:13.124Z,0.00
2023-04-26T02:12:13.112Z,0.00
2023-04-26T02:13:13.167Z,0.00
2023-04-26T02:14:13.085Z,0.00
2023-04-26T02:15:13.073Z,0.00
2023-04-26T02:16:13.085Z,0.00
2023-04-26T02:17:13.065Z,0.00
2023-04-26T02:18:13.088Z,0.00
2023-04-26T02:19:13.024Z,0.00
2023-04-26T02:20:12.981Z,0.00
2023-04-26T02:21:12.996Z,0.00
2023-04-26T02:22:12.954Z,0.00
2023-04-26T02:23:12.990Z,0.00
2023-04-26T02:24:12.976Z,0.00
2023-04-26T02:25:12.964Z,0.00
2023-04-26T02:26:12.912Z,0.00
2023-04-26T02:27:12.969Z,0.00
2023-04-26T02:28:12.901Z,0.00
2023-04-26T02:29:12.892Z,0.00
2023-04-26T02:30:12.882Z,0.00
2023-04-26T02:31:12.889Z,0.00
2023-04-26T02:32:12.880Z,0.00
2023-04-26T02:33:12.844Z,0.00
2023-04-26T02:34:12.815Z,0.00
2023-04-26T02:35:12.819Z,0.00
2023-04-26T02:36:12.785Z,0.00
2023-04-26T02:37:12.789Z,0.00
2023-04-26T02:38:12.756Z,0.00
2023-04-26T02:39:12.778Z,0.00
2023-04-26T02:40:12.722Z,0.00
2023-04-26T02:41:12.767Z,0.00
2023-04-26T02:42:12.713Z,0.00
2023-04-26T02:43:12.719Z,0.00
2023-04-26T02:44:12.666Z,0.00
2023-04-26T02:45:12.691Z,0.00
2023-04-26T02:46:12.698Z,0.00
2023-04-26T02:47:12.650Z,0.00
2023-04-26T02:48:12.631Z,0.00
2023-04-26T02:49:12.608Z,0.00
2023-04-26T02:50:12.584Z,0.00
2023-04-26T02:51:12.633Z,0.00
2023-04-26T02:52:12.591Z,0.00
2023-04-26T02:53:12.588Z,0.00
2023-04-26T02:54:12.544Z,0.00
2023-04-26T02:55:12.577Z,0.00
2023-04-26T02:56:12.517Z,0.00
2023-04-26T02:57:12.550Z,0.00
2023-04-26T02:58:12.500Z,0.00
2023-04-26T02:59:12.495Z,0.00
2023-04-26T03:00:12.470Z,0.00
2023-04-26T03:01:12.541Z,0.00
2023-04-26T03:02:12.537Z,0.00
2023-04-26T03:03:12.705Z,0.00
2023-04-26T03:04:12.590Z,0.00
2023-04-26T03:05:12.424Z,0.00
2023-04-26T03:06:12.411Z,0.00
2023-04-26T03:07:12.395Z,0.00
2023-04-26T03:08:12.348Z,0.00
2023-04-26T03:09:12.362Z,0.00
2023-04-26T03:10:12.321Z,0.00
2023-04-26T03:11:12.378Z,0.00
2023-04-26T03:12:12.293Z,0.00
2023-04-26T03:13:12.314Z,0.00
2023-04-26T03:14:12.311Z,0.00
2023-04-26T03:15:12.321Z,0.00
2023-04-26T03:16:12.282Z,0.00
2023-04-26T03:17:12.270Z,0.00
2023-04-26T03:18:12.237Z,0.00
2023-04-26T03:19:12.240Z,0.00
2023-04-26T03:20:12.234Z,0.00
2023-04-26T03:21:12.212Z,0.00
2023-04-26T03:22:12.173Z,0.00
2023-04-26T03:23:12.179Z,0.00
2023-04-26T03:24:12.167Z,0.00
2023-04-26T03:25:12.173Z,0.00
2023-04-26T03:26:12.114Z,0.00
2023-04-26T03:27:12.131Z,0.00
2023-04-26T03:28:12.101Z,0.00
2023-04-26T03:29:12.120Z,0.00
2023-04-26T03:30:12.073Z,0.00
2023-04-26T03:31:12.094Z,0.00
2023-04-26T03:32:12.115Z,0.00
2023-04-26T03:33:12.108Z,0.00
2023-04-26T03:34:12.044Z,0.00
2023-04-26T03:35:12.030Z,0.00
2023-04-26T03:36:11.999Z,0.00
2023-04-26T03:37:11.968Z,0.00
2023-04-26T03:38:11.993Z,0.00
2023-04-26T03:39:11.954Z,0.00
2023-04-26T03:40:12.001Z,0.00
2023-04-26T03:41:11.920Z,0.00
2023-04-26T03:42:11.942Z,0.00
2023-04-26T03:43:11.901Z,0.00
2023-04-26T03:44:11.913Z,0.00
2023-04-26T03:45:11.904Z,0.00
2023-04-26T03:46:11.942Z,0.00
2023-04-26T03:47:11.853Z,0.00
2023-04-26T03:48:11.885Z,0.00
2023-04-26T03:49:11.808Z,0.00
2023-04-26T03:50:11.829Z,0.00
2023-04-26T03:51:11.813Z,0.00
2023-04-26T03:52:11.807Z,0.00
2023-04-26T03:53:11.769Z,0.00
2023-04-26T03:54:11.782Z,0.00
2023-04-26T03:55:11.802Z,0.00
2023-04-26T03:56:11.777Z,0.00
2023-04-26T03:57:11.708Z,0.00
2023-04-26T03:58:11.728Z,0.00
2023-04-26T03:59:11.709Z,0.00
2023-04-26T04:00:11.704Z,0.00
2023-04-26T04:01:11.701Z,0.00
2023-04-26T04:02:11.825Z,0.00
2023-04-26T04:03:11.842Z,0.00
2023-04-26T04:04:11.906Z,0.00
2023-04-26T04:05:11.733Z,4.00
2023-04-26T04:06:11.614Z,0.00
2023-04-26T04:07:11.581Z,0.00
2023-04-26T04:08:11.619Z,0.00
2023-04-26T04:09:11.593Z,0.00
2023-04-26T04:10:11.586Z,4.00
2023-04-26T04:11:11.528Z,0.00
2023-04-26T04:12:11.554Z,0.00
2023-04-26T04:13:11.517Z,4.00
2023-04-26T04:14:11.547Z,4.00
2023-04-26T04:15:11.484Z,0.00
2023-04-26T04:16:11.521Z,4.00
2023-04-26T04:17:11.448Z,4.00
2023-04-26T04:18:11.491Z,4.00
2023-04-26T04:19:11.454Z,4.00
2023-04-26T04:20:11.445Z,8.00
2023-04-26T04:21:11.397Z,4.00
2023-04-26T04:22:11.447Z,4.00
2023-04-26T04:23:11.385Z,4.00
2023-04-26T04:24:11.444Z,8.00
2023-04-26T04:25:11.378Z,8.00
2023-04-26T04:26:11.377Z,8.00
2023-04-26T04:27:11.316Z,8.00
2023-04-26T04:28:11.361Z,8.00
2023-04-26T04:29:11.339Z,12.00
2023-04-26T04:30:11.331Z,8.00
2023-04-26T04:31:11.364Z,8.00
2023-04-26T04:32:11.303Z,12.00
2023-04-26T04:33:11.241Z,12.00
2023-04-26T04:34:11.261Z,12.00
2023-04-26T04:35:11.248Z,12.00
2023-04-26T04:36:11.235Z,12.00
2023-04-26T04:37:11.187Z,12.00
2023-04-26T04:38:11.215Z,16.00
2023-04-26T04:39:11.181Z,16.00
2023-04-26T04:40:11.746Z,16.00
2023-04-26T04:41:11.157Z,16.00
2023-04-26T04:42:11.153Z,20.00
2023-04-26T04:43:11.141Z,16.00
2023-04-26T04:44:11.140Z,20.00
2023-04-26T04:45:11.100Z,20.00
2023-04-26T04:46:12.644Z,20.00
2023-04-26T04:47:11.069Z,24.00
2023-04-26T04:48:11.153Z,20.00
2023-04-26T04:49:11.049Z,24.00
2023-04-26T04:50:11.049Z,24.00
2023-04-26T04:51:11.044Z,24.00
2023-04-26T04:52:11.054Z,28.00
2023-04-26T04:53:10.975Z,28.00
2023-04-26T04:54:10.999Z,28.00
2023-04-26T04:55:10.983Z,28.00
2023-04-26T04:56:10.979Z,32.00
2023-04-26T04:57:11.000Z,28.00
2023-04-26T04:58:10.948Z,32.00
2023-04-26T04:59:10.928Z,32.00
2023-04-26T05:00:10.924Z,32.00
2023-04-26T05:01:10.883Z,36.00
2023-04-26T05:02:11.119Z,36.00
2023-04-26T05:03:11.022Z,36.00
2023-04-26T05:04:10.991Z,36.00
2023-04-26T05:05:10.910Z,40.00
2023-04-26T05:06:10.844Z,36.00
2023-04-26T05:07:10.816Z,40.00
2023-04-26T05:08:10.848Z,36.00
2023-04-26T05:09:10.772Z,40.00
2023-04-26T05:10:10.802Z,44.00
2023-04-26T05:11:10.759Z,44.00
2023-04-26T05:12:10.765Z,44.00
2023-04-26T05:13:10.757Z,44.00
2023-04-26T05:14:10.750Z,44.00
2023-04-26T05:15:10.754Z,48.00
2023-04-26T05:16:10.744Z,48.00
2023-04-26T05:17:10.681Z,48.00
2023-04-26T05:18:10.795Z,52.00
2023-04-26T05:19:10.720Z,52.00
2023-04-26T05:20:10.681Z,52.00
2023-04-26T05:21:10.661Z,52.00
2023-04-26T05:22:10.650Z,56.00
2023-04-26T05:23:10.602Z,56.00
2023-04-26T05:24:10.620Z,56.00
2023-04-26T05:25:10.629Z,60.00
2023-04-26T05:26:10.597Z,64.00
2023-04-26T05:27:10.566Z,60.00
2023-04-26T05:28:10.593Z,64.00
2023-04-26T05:29:10.568Z,68.00
2023-04-26T05:30:10.548Z,64.00
2023-04-26T05:31:11.563Z,64.00
2023-04-26T05:32:10.683Z,68.00
2023-04-26T05:33:10.509Z,68.00
2023-04-26T05:34:10.498Z,68.00
2023-04-26T05:35:10.473Z,68.00
2023-04-26T05:36:10.481Z,68.00
2023-04-26T05:37:10.449Z,68.00
2023-04-26T05:38:10.499Z,64.00
2023-04-26T05:39:10.406Z,68.00
2023-04-26T05:40:10.410Z,68.00
2023-04-26T05:41:10.373Z,68.00
2023-04-26T05:42:10.399Z,68.00
2023-04-26T05:43:10.362Z,64.00
2023-04-26T05:44:10.368Z,64.00
2023-04-26T05:45:10.327Z,64.00
2023-04-26T05:46:10.406Z,64.00
2023-04-26T05:47:10.339Z,68.00
2023-04-26T05:48:10.388Z,64.00
2023-04-26T05:49:10.279Z,64.00
2023-04-26T05:50:10.279Z,68.00
2023-04-26T05:51:10.280Z,68.00
2023-04-26T05:52:10.280Z,68.00
2023-04-26T05:53:10.232Z,72.00
2023-04-26T05:54:10.251Z,68.00
2023-04-26T05:55:10.189Z,72.00
2023-04-26T05:56:10.247Z,72.00
2023-04-26T05:57:10.222Z,72.00
2023-04-26T05:58:10.175Z,72.00
2023-04-26T05:59:10.138Z,72.00
2023-04-26T06:00:10.180Z,72.00
2023-04-26T06:01:10.120Z,72.00
2023-04-26T06:02:10.217Z,76.00
2023-04-26T06:03:10.347Z,76.00
2023-04-26T06:04:10.830Z,76.00
2023-04-26T06:05:10.301Z,76.00
2023-04-26T06:06:10.165Z,76.00
2023-04-26T06:07:10.076Z,76.00
2023-04-26T06:08:10.068Z,80.00
2023-04-26T06:09:10.021Z,80.00
2023-04-26T06:10:10.029Z,80.00
2023-04-26T06:11:10.018Z,80.00
2023-04-26T06:12:10.124Z,80.00
2023-04-26T06:13:09.978Z,84.00
2023-04-26T06:14:19.840Z,84.00
2023-04-26T06:15:09.957Z,84.00
2023-04-26T06:16:09.962Z,84.00
2023-04-26T06:17:09.925Z,84.00
2023-04-26T06:18:09.977Z,84.00
2023-04-26T06:19:09.942Z,84.00
2023-04-26T06:20:09.929Z,88.00
2023-04-26T06:21:09.858Z,88.00
2023-04-26T06:22:09.897Z,88.00
2023-04-26T06:23:09.851Z,92.00
2023-04-26T06:24:09.841Z,92.00
2023-04-26T06:25:09.822Z,96.00
2023-04-26T06:26:09.817Z,96.00
2023-04-26T06:27:09.788Z,96.00
2023-04-26T06:28:09.816Z,100.00
2023-04-26T06:29:09.756Z,100.00
2023-04-26T06:30:09.784Z,100.00
2023-04-26T06:31:09.757Z,100.00
2023-04-26T06:32:09.743Z,100.00
2023-04-26T06:33:09.740Z,104.00
2023-04-26T06:34:09.791Z,104.00
2023-04-26T06:35:09.675Z,104.00
2023-04-26T06:36:09.690Z,108.00
2023-04-26T06:37:09.650Z,112.00
2023-04-26T06:38:09.687Z,112.00
2023-04-26T06:39:09.637Z,116.00
2023-04-26T06:40:09.653Z,120.00
2023-04-26T06:41:09.608Z,124.00
2023-04-26T06:42:09.629Z,120.00
2023-04-26T06:43:09.582Z,128.00
2023-04-26T06:44:09.603Z,132.00
2023-04-26T06:45:09.545Z,132.00
2023-04-26T06:46:09.590Z,132.00
2023-04-26T06:47:09.546Z,136.00
2023-04-26T06:48:09.569Z,140.00
2023-04-26T06:49:09.491Z,136.00
2023-04-26T06:50:09.494Z,148.00
2023-04-26T06:51:09.449Z,152.00
2023-04-26T06:52:09.699Z,160.00
2023-04-26T06:53:09.466Z,160.00
2023-04-26T06:54:09.435Z,168.00
2023-04-26T06:55:09.404Z,176.00
2023-04-26T06:56:09.420Z,188.00
2023-04-26T06:57:09.410Z,192.00
2023-04-26T06:58:09.411Z,200.00
2023-04-26T06:59:09.365Z,204.00
2023-04-26T07:00:09.417Z,212.00
2023-04-26T07:01:09.377Z,232.00
2023-04-26T07:02:09.411Z,248.00
2023-04-26T07:03:09.422Z,264.00
2023-04-26T07:04:09.501Z,288.00
2023-04-26T07:05:09.389Z,308.00
2023-04-26T07:06:09.313Z,332.00
2023-04-26T07:07:10.506Z,348.00
2023-04-26T07:08:09.272Z,372.00
2023-04-26T07:09:09.245Z,416.00
2023-04-26T07:10:09.260Z,444.00
2023-04-26T07:11:09.462Z,496.00
2023-04-26T07:12:09.228Z,540.00
2023-04-26T07:13:09.680Z,600.00
2023-04-26T07:14:09.186Z,652.00
2023-04-26T07:15:09.149Z,736.00
2023-04-26T07:16:09.193Z,812.00
2023-04-26T07:17:09.419Z,856.00
2023-04-26T07:18:09.184Z,884.00
2023-04-26T07:19:09.125Z,892.00
2023-04-26T07:20:09.131Z,880.00
2023-04-26T07:21:09.071Z,864.00
2023-04-26T07:22:09.097Z,888.00
2023-04-26T07:23:09.058Z,900.00
2023-04-26T07:24:09.063Z,908.00
2023-04-26T07:25:09.029Z,820.00
2023-04-26T07:26:09.077Z,712.00
2023-04-26T07:27:09.073Z,680.00
2023-04-26T07:28:09.014Z,732.00
2023-04-26T07:29:09.003Z,824.00
2023-04-26T07:30:09.152Z,912.00
2023-04-26T07:31:10.118Z,896.00
2023-04-26T07:32:09.006Z,856.00
2023-04-26T07:33:09.042Z,776.00
2023-04-26T07:34:08.963Z,548.00
2023-04-26T07:35:08.911Z,616.00
2023-04-26T07:36:08.897Z,800.00
2023-04-26T07:37:08.868Z,904.00
2023-04-26T07:38:08.905Z,968.00
2023-04-26T07:39:08.853Z,968.00
2023-04-26T07:40:08.877Z,952.00
2023-04-26T07:41:08.844Z,932.00
2023-04-26T07:42:08.824Z,960.00
2023-04-26T07:43:08.823Z,976.00
2023-04-26T07:44:08.815Z,980.00
2023-04-26T07:45:08.785Z,952.00
2023-04-26T07:46:08.818Z,868.00
2023-04-26T07:47:08.752Z,904.00
2023-04-26T07:48:08.863Z,764.00
2023-04-26T07:49:08.710Z,864.00
2023-04-26T07:50:08.726Z,848.00
2023-04-26T07:51:08.718Z,896.00
2023-04-26T07:52:08.707Z,884.00
2023-04-26T07:53:08.721Z,948.00
2023-04-26T07:54:08.673Z,972.00
2023-04-26T07:55:08.664Z,968.00
2023-04-26T07:56:08.642Z,968.00
2023-04-26T07:57:08.624Z,960.00
2023-04-26T07:58:08.592Z,960.00
2023-04-26T07:59:08.627Z,956.00
2023-04-26T08:00:08.577Z,952.00
2023-04-26T08:01:08.581Z,944.00
2023-04-26T08:02:08.611Z,940.00
2023-04-26T08:03:08.702Z,940.00
2023-04-26T08:04:08.758Z,936.00
2023-04-26T08:05:08.669Z,928.00
2023-04-26T08:06:09.293Z,924.00
2023-04-26T08:07:08.522Z,924.00
2023-04-26T08:08:08.454Z,924.00
2023-04-26T08:09:08.482Z,924.00
2023-04-26T08:10:08.462Z,928.00
2023-04-26T08:11:08.443Z,924.00
2023-04-26T08:12:08.455Z,916.00
2023-04-26T08:13:08.403Z,892.00
2023-04-26T08:14:08.440Z,904.00
2023-04-26T08:15:08.400Z,908.00
2023-04-26T08:16:08.401Z,904.00
2023-04-26T08:17:08.447Z,900.00
2023-04-26T08:18:08.392Z,888.00
2023-04-26T08:19:08.344Z,872.00
2023-04-26T08:20:08.384Z,892.00
2023-04-26T08:21:08.293Z,892.00
2023-04-26T08:22:08.294Z,888.00
2023-04-26T08:23:08.276Z,880.00
2023-04-26T08:24:08.362Z,884.00
2023-04-26T08:25:08.247Z,880.00
2023-04-26T08:26:08.415Z,880.00
2023-04-26T08:27:08.211Z,880.00
2023-04-26T08:28:08.221Z,876.00
2023-04-26T08:29:08.171Z,704.00
2023-04-26T08:30:08.189Z,868.00
2023-04-26T08:31:08.229Z,776.00
2023-04-26T08:32:08.199Z,852.00
2023-04-26T08:33:08.167Z,848.00
2023-04-26T08:34:08.188Z,884.00
2023-04-26T08:35:08.112Z,880.00
2023-04-26T08:36:08.131Z,848.00
2023-04-26T08:37:08.075Z,856.00
2023-04-26T08:38:08.080Z,812.00
2023-04-26T08:39:08.067Z,828.00
2023-04-26T08:40:08.072Z,860.00
2023-04-26T08:41:08.610Z,772.00
2023-04-26T08:42:08.025Z,844.00
2023-04-26T08:43:08.049Z,748.00
2023-04-26T08:44:08.006Z,596.00
2023-04-26T08:45:07.962Z,772.00
2023-04-26T08:46:08.012Z,660.00
2023-04-26T08:47:07.964Z,688.00
2023-04-26T08:48:07.999Z,652.00
2023-04-26T08:49:07.932Z,604.00
2023-04-26T08:50:07.980Z,616.00
2023-04-26T08:51:07.914Z,680.00
2023-04-26T08:52:07.906Z,660.00
2023-04-26T08:53:07.858Z,704.00
2023-04-26T08:54:07.881Z,744.00
2023-04-26T08:55:07.853Z,664.00
2023-04-26T08:56:07.874Z,592.00
2023-04-26T08:57:07.821Z,500.00
2023-04-26T08:58:07.817Z,656.00
2023-04-26T08:59:07.812Z,572.00
2023-04-26T09:00:07.794Z,548.00
2023-04-26T09:01:07.830Z,364.00
2023-04-26T09:02:07.831Z,464.00
2023-04-26T09:03:07.887Z,612.00
2023-04-26T09:04:07.933Z,640.00
2023-04-26T09:05:07.876Z,704.00
2023-04-26T09:06:07.747Z,776.00
2023-04-26T09:07:07.682Z,784.00
2023-04-26T09:08:07.688Z,772.00
2023-04-26T09:09:07.655Z,732.00
2023-04-26T09:10:07.671Z,684.00
2023-04-26T09:11:07.633Z,760.00
2023-04-26T09:12:07.644Z,756.00
2023-04-26T09:13:07.604Z,708.00
2023-04-26T09:14:07.648Z,768.00
2023-04-26T09:15:07.644Z,768.00
2023-04-26T09:16:07.689Z,788.00
2023-04-26T09:17:07.569Z,740.00
2023-04-26T09:18:07.595Z,748.00
2023-04-26T09:19:07.541Z,752.00
2023-04-26T09:20:08.097Z,764.00
2023-04-26T09:21:07.485Z,752.00
2023-04-26T09:22:07.545Z,712.00
2023-04-26T09:23:07.500Z,740.00
2023-04-26T09:24:07.472Z,508.00
2023-04-26T09:25:07.454Z,584.00
2023-04-26T09:26:07.481Z,680.00
2023-04-26T09:27:07.407Z,568.00
2023-04-26T09:28:07.438Z,720.00
2023-04-26T09:29:07.393Z,660.00
2023-04-26T09:30:07.400Z,484.00
2023-04-26T09:31:07.419Z,480.00
2023-04-26T09:32:07.354Z,716.00
2023-04-26T09:33:07.365Z,672.00
2023-04-26T09:34:07.356Z,640.00
2023-04-26T09:35:07.313Z,588.00
2023-04-26T09:36:07.359Z,640.00
2023-04-26T09:37:07.318Z,640.00
2023-04-26T09:38:12.244Z,468.00
2023-04-26T09:39:07.254Z,432.00
2023-04-26T09:40:07.257Z,524.00
2023-04-26T09:41:07.215Z,684.00
2023-04-26T09:42:07.270Z,724.00
2023-04-26T09:43:07.222Z,672.00
2023-04-26T09:44:07.234Z,700.00
2023-04-26T09:45:07.167Z,680.00
2023-04-26T09:46:07.232Z,676.00
2023-04-26T09:47:07.274Z,632.00
2023-04-26T09:48:07.247Z,664.00
2023-04-26T09:49:07.166Z,664.00
2023-04-26T09:50:07.175Z,684.00
2023-04-26T09:51:07.109Z,688.00
2023-04-26T09:52:07.140Z,588.00
2023-04-26T09:53:07.056Z,648.00
2023-04-26T09:54:07.071Z,592.00
2023-04-26T09:55:07.041Z,640.00
2023-04-26T09:56:07.062Z,620.00
2023-04-26T09:57:07.020Z,664.00
2023-04-26T09:58:07.052Z,668.00
2023-04-26T09:59:06.978Z,596.00
2023-04-26T10:00:07.014Z,644.00
2023-04-26T10:01:07.074Z,688.00
2023-04-26T10:02:06.975Z,672.00
2023-04-26T10:03:07.071Z,700.00
2023-04-26T10:04:07.002Z,592.00
2023-04-26T10:05:06.936Z,572.00
2023-04-26T10:06:06.941Z,556.00
2023-04-26T10:07:06.923Z,568.00
2023-04-26T10:08:06.921Z,596.00
2023-04-26T10:09:06.879Z,584.00
2023-04-26T10:10:06.881Z,588.00
2023-04-26T10:11:06.839Z,636.00
2023-04-26T10:12:06.886Z,612.00
2023-04-26T10:13:06.803Z,592.00
2023-04-26T10:14:06.830Z,552.00
2023-04-26T10:15:06.796Z,612.00
2023-04-26T10:16:07.036Z,640.00
2023-04-26T10:17:06.771Z,700.00
2023-04-26T10:18:06.803Z,628.00
2023-04-26T10:19:06.742Z,604.00
2023-04-26T10:20:06.730Z,580.00
2023-04-26T10:21:06.701Z,600.00
2023-04-26T10:22:06.732Z,580.00
2023-04-26T10:23:06.674Z,556.00
2023-04-26T10:24:06.729Z,544.00
2023-04-26T10:25:06.677Z,548.00
2023-04-26T10:26:06.673Z,552.00
2023-04-26T10:27:06.628Z,536.00
2023-04-26T10:28:06.650Z,540.00
2023-04-26T10:29:06.819Z,524.00
2023-04-26T10:30:06.648Z,524.00
2023-04-26T10:31:06.573Z,520.00
2023-04-26T10:32:06.758Z,536.00
2023-04-26T10:33:06.585Z,536.00
2023-04-26T10:34:06.576Z,536.00
2023-04-26T10:35:06.522Z,528.00
2023-04-26T10:36:06.552Z,512.00
2023-04-26T10:37:06.502Z,500.00
2023-04-26T10:38:06.505Z,512.00
2023-04-26T10:39:06.466Z,496.00
2023-04-26T10:40:06.504Z,492.00
2023-04-26T10:41:06.468Z,512.00
2023-04-26T10:42:06.455Z,496.00
2023-04-26T10:43:06.443Z,460.00
2023-04-26T10:44:06.431Z,416.00
2023-04-26T10:45:06.418Z,412.00
2023-04-26T10:46:06.401Z,412.00
2023-04-26T10:47:06.393Z,472.00
2023-04-26T10:48:06.410Z,496.00
2023-04-26T10:49:06.336Z,464.00
2023-04-26T10:50:06.520Z,436.00
2023-04-26T10:51:06.344Z,412.00
2023-04-26T10:52:06.583Z,460.00
2023-04-26T10:53:06.306Z,468.00
2023-04-26T10:54:06.300Z,440.00
2023-04-26T10:55:06.444Z,492.00
2023-04-26T10:56:06.342Z,464.00
2023-04-26T10:57:06.237Z,496.00
2023-04-26T10:58:06.255Z,456.00
2023-04-26T10:59:13.686Z,448.00
2023-04-26T11:00:06.244Z,448.00
2023-04-26T11:01:06.235Z,444.00
2023-04-26T11:02:06.204Z,428.00
2023-04-26T11:03:06.293Z,452.00
2023-04-26T11:04:06.241Z,452.00
2023-04-26T11:05:06.294Z,456.00
2023-04-26T11:06:06.149Z,456.00
2023-04-26T11:07:06.112Z,448.00
2023-04-26T11:08:06.131Z,460.00
2023-04-26T11:09:06.085Z,460.00
2023-04-26T11:10:06.081Z,452.00
2023-04-26T11:11:06.087Z,452.00
2023-04-26T11:12:06.147Z,452.00
2023-04-26T11:13:06.045Z,456.00
2023-04-26T11:14:06.113Z,460.00
2023-04-26T11:15:06.010Z,472.00
2023-04-26T11:16:06.047Z,460.00
2023-04-26T11:17:05.966Z,460.00
2023-04-26T11:18:06.020Z,472.00
2023-04-26T11:19:05.962Z,476.00
2023-04-26T11:20:05.942Z,468.00
2023-04-26T11:21:05.920Z,452.00
2023-04-26T11:22:05.921Z,448.00
2023-04-26T11:23:05.916Z,440.00
2023-04-26T11:24:05.920Z,436.00
2023-04-26T11:25:05.892Z,436.00
2023-04-26T11:26:05.858Z,424.00
2023-04-26T11:27:05.833Z,440.00
2023-04-26T11:28:05.844Z,436.00
2023-04-26T11:29:05.869Z,428.00
2023-04-26T11:30:05.814Z,424.00
2023-04-26T11:31:05.797Z,404.00
2023-04-26T11:32:05.855Z,404.00
2023-04-26T11:33:05.830Z,376.00
2023-04-26T11:34:05.777Z,372.00
2023-04-26T11:35:05.759Z,356.00
2023-04-26T11:36:05.746Z,344.00
2023-04-26T11:37:05.719Z,376.00
2023-04-26T11:38:05.721Z,336.00
2023-04-26T11:39:05.706Z,348.00
2023-04-26T11:40:05.680Z,356.00
2023-04-26T11:41:05.656Z,324.00
2023-04-26T11:42:05.676Z,320.00
2023-04-26T11:43:05.624Z,348.00
2023-04-26T11:44:05.738Z,336.00
2023-04-26T11:45:05.618Z,340.00
2023-04-26T11:46:05.680Z,328.00
2023-04-26T11:47:05.652Z,360.00
2023-04-26T11:48:05.679Z,372.00
2023-04-26T11:49:05.541Z,384.00
2023-04-26T11:50:05.575Z,332.00
2023-04-26T11:51:05.587Z,312.00
2023-04-26T11:52:05.542Z,340.00
2023-04-26T11:53:05.514Z,308.00
2023-04-26T11:54:05.530Z,300.00
2023-04-26T11:55:05.497Z,304.00
2023-04-26T11:56:05.481Z,304.00
2023-04-26T11:57:05.436Z,312.00
2023-04-26T11:58:05.478Z,308.00
2023-04-26T11:59:05.424Z,300.00
2023-04-26T12:00:05.435Z,292.00
2023-04-26T12:01:05.409Z,292.00
2023-04-26T12:02:05.473Z,300.00
2023-04-26T12:03:05.727Z,304.00
2023-04-26T12:04:05.578Z,300.00
2023-04-26T12:05:05.371Z,308.00
2023-04-26T12:06:05.380Z,296.00
2023-04-26T12:07:05.329Z,292.00
2023-04-26T12:08:05.298Z,288.00
2023-04-26T12:09:05.318Z,296.00
2023-04-26T12:10:05.309Z,320.00
2023-04-26T12:11:05.337Z,324.00
2023-04-26T12:12:05.269Z,360.00
2023-04-26T12:13:05.269Z,340.00
2023-04-26T12:14:05.270Z,344.00
2023-04-26T12:15:05.226Z,356.00
2023-04-26T12:16:07.346Z,388.00
2023-04-26T12:17:05.391Z,360.00
2023-04-26T12:18:05.224Z,356.00
2023-04-26T12:19:05.174Z,348.00
2023-04-26T12:20:05.165Z,340.00
2023-04-26T12:21:05.164Z,348.00
2023-04-26T12:22:05.180Z,352.00
2023-04-26T12:23:05.151Z,340.00
2023-04-26T12:24:05.151Z,340.00
2023-04-26T12:25:05.121Z,328.00
2023-04-26T12:26:05.077Z,360.00
2023-04-26T12:27:05.114Z,328.00
2023-04-26T12:28:05.051Z,324.00
2023-04-26T12:29:05.051Z,332.00
2023-04-26T12:30:05.013Z,336.00
2023-04-26T12:31:05.079Z,328.00
2023-04-26T12:32:05.118Z,324.00
2023-04-26T12:33:16.400Z,336.00
2023-04-26T12:34:04.968Z,328.00
2023-04-26T12:35:04.976Z,320.00
2023-04-26T12:36:04.935Z,316.00
2023-04-26T12:37:04.955Z,316.00
2023-04-26T12:38:04.959Z,316.00
2023-04-26T12:39:04.927Z,312.00
2023-04-26T12:40:04.897Z,308.00
2023-04-26T12:41:04.896Z,308.00
2023-04-26T12:42:04.847Z,304.00
2023-04-26T12:43:04.897Z,300.00
2023-04-26T12:44:04.837Z,300.00
2023-04-26T12:45:04.856Z,336.00
2023-04-26T12:46:04.824Z,316.00
2023-04-26T12:47:04.852Z,320.00
2023-04-26T12:48:04.788Z,308.00
2023-04-26T12:49:04.828Z,312.00